Chignik Lagoon, AK (99565)

4:12 AM AKDT on August 28, 2014 (GMT -0800)
Chignik | Change Station
CLOSE
Current Station
Airport
Location: Chignik,
Elevation: 16 ft
Nearby Weather Stations

Elev 16 ft 56.31 °N, 158.37 °W | Updated 16 minutes ago

Scattered Clouds
Scattered Clouds
57 °F
Feels Like 57 °F
N
16
Wind Variable Wind from WNW
Gusts 26 mph

Today
High -- | Low -- °F
--% Chance of Precip.
Yesterday
High -- | Low -- °F
Precip. -- in
7:30 AM 9:38 PM
Waxing Crescent, 8% visible
Pressure 29.69 in
Visibility 10.0 miles
Clouds Scattered Clouds 4000 ft
Dew Point 46 °F
Humidity 67%
Rainfall 0.03 in
Snow Depth Not available.
UV 0 out of 12
Pollen Not available.
Air Quality Not available.
Flu Activity Not available.
METAR PAJC 281156Z AUTO 30014G23KT 240V360 10SM SCT040 14/08 A2969 RMK AO1 60001 70006 10140 20130 52020

More Conditions Fewer Conditions

Pressure 29.69 in
Visibility 10.0 miles
Clouds Scattered Clouds 4000 ft
Dew Point 46 °F
Humidity 67%
Rainfall 0.03 in
Snow Depth Not available.
UV 0 out of 12
Pollen Not available.
Air Quality Not available.
Flu Activity Not available.
METAR PAJC 281156Z AUTO 30014G23KT 240V360 10SM SCT040 14/08 A2969 RMK AO1 60001 70006 10140 20130 52020

More Conditions Fewer Conditions

10-Day Weather Forecast

Almanac

Astronomy

Aug. 28, 2014 Rise Set
Actual Time 7:30 AM AKDT 9:38 PM AKDT
Civil Twilight 6:49 AM AKDT 10:18 PM AKDT
Nautical Twilight 5:58 AM AKDT 11:09 PM AKDT
Astronomical Twilight 4:56 AM AKDT 12:10 AM AKDT
Moon 11:15 AM AKDT 10:23 PM AKDT
Length of Visible Light 15h 28m
Length of Day
14h 07m
Tomorrow will be 4m 34s shorter.
Waxing Crescent, 8% of the Moon is Illuminated
Today
Waxing Crescent
Sep 2
First Quarter
Sep 8
Full
Sep 15
Last Quarter
Sep 24
New

Today's Extremes

State Highs State Lows

Community

WunderPhotos

Upload Photos

1,747,932 photos uploaded!

Nearby

Snow Depth

Station Depth Elevation
Port Graham 0 in 300 ft
Mcneil Canyon 1 in 1320 ft
Nuka Glacier 164 in 1250 ft
MF Bradley River 3 in 2300 ft
Cooper Lake 8 in 1200 ft

Earthquake Activity

City Distance Mag. Time & Date
No recent earthquake activity has been reported nearby.
Minimum magnitude displayed is 2.5.

Coastal Water Temperatures

Place Temperature
No Stations Reporting

Nearby Weather Stations